Emerald Express — HO2486 — position and weather

sailwx.info

Track history (hours):
 
Tides and Currents Weather Stations Pressure Air Temp Water Temp Dewpoint Dewpoint Depression Visibility Wind Speed Wind Dir Waves Ship Positions

Emerald Express

Last reported at 2017-Sep-16 10:09 UTC. Time now 2017-Sep-22 04:32 UTC.
Position N 25°54' W 079°37'.

Length 53 m; draft 2 m.

Type: Ship. MMSI: 354580000.

Date/timePositionNaut miles runAvg speedWind from/ knotsBaromVisibWave heightAir tempDewpointWater temp
2017-Sep-16 10:09N 25°54' W 079°37'1 7.6
2017-Sep-16 09:59N 25°55' W 079°38'4 7.5
2017-Sep-16 09:30N 25°56' W 079°42'4 7.4
2017-Sep-16 09:00N 25°57' W 079°46'4 7.4
2017-Sep-16 08:30N 25°58' W 079°50'4 7.2
2017-Sep-16 08:00N 25°60' W 079°53'4 7.5
2017-Sep-16 07:30N 26°00' W 079°58'3 7.0
2017-Sep-16 07:00N 26°02' W 080°01'4 7.9
2017-Sep-16 06:30N 26°05' W 080°04'3 5.0
2017-Sep-16 06:00N 26°04' W 080°07'1 2.0
2017-Sep-16 05:30N 26°04' W 080°08'0 0.0
2017-Sep-16 05:00N 26°04' W 080°08'0 0.0
2017-Sep-16 04:30N 26°04' W 080°08'0 0.0
2017-Sep-16 04:00N 26°04' W 080°08'0 0.0
2017-Sep-16 03:30N 26°04' W 080°08'0 0.0
2017-Sep-16 03:00N 26°04' W 080°08'0 0.0
2017-Sep-16 02:30N 26°04' W 080°08'0 0.0
2017-Sep-16 02:00N 26°04' W 080°08'1 2.1
2017-Sep-16 01:30N 26°04' W 080°07'1 2.2
2017-Sep-16 01:00N 26°05' W 080°06'0 0.9
2017-Sep-16 00:30N 26°05' W 080°05'3 6.1
2017-Sep-16 00:00N 26°05' W 080°02'4 8.1
2017-Sep-15 23:30N 26°06' W 079°58'4 8.2
2017-Sep-15 23:00N 26°06' W 079°53'4 7.9
2017-Sep-15 22:30N 26°06' W 079°49'4 7.7
2017-Sep-15 22:00N 26°06' W 079°44'4 7.5
2017-Sep-15 21:30N 26°06' W 079°40'4 7.7
2017-Sep-15 21:00N 26°06' W 079°36'4 8.0
2017-Sep-15 20:30N 26°07' W 079°31'12 0.8
2017-Sep-15 06:32N 26°17' W 079°26'5 8.6
2017-Sep-15 05:58N 26°16' W 079°31'4 8.4
2017-Sep-15 05:30N 26°15' W 079°35'4 8.2
2017-Sep-15 05:00N 26°13' W 079°39'4 8.4
2017-Sep-15 04:30N 26°12' W 079°44'4 8.7
2017-Sep-15 04:00N 26°10' W 079°48'5 9.2
2017-Sep-15 03:30N 26°09' W 079°53'5 9.0
2017-Sep-15 03:00N 26°07' W 079°58'5 9.7
2017-Sep-15 02:30N 26°06' W 080°03'4 7.5
2017-Sep-15 02:00N 26°05' W 080°07'1 2.6
2017-Sep-15 01:30N 26°04' W 080°08'0 0.0
2017-Sep-15 01:00N 26°04' W 080°08'0 0.0
2017-Sep-15 00:30N 26°04' W 080°08'0 0.0
2017-Sep-15 00:00N 26°04' W 080°08'0 0.0
2017-Sep-14 23:30N 26°04' W 080°08'0 0.0
2017-Sep-14 23:00N 26°04' W 080°08'0 0.0
2017-Sep-14 22:30N 26°04' W 080°08'0 0.0
2017-Sep-14 22:00N 26°04' W 080°08'0 0.0
2017-Sep-14 21:30N 26°04' W 080°08'0 0.0
2017-Sep-14 21:00N 26°04' W 080°08'0 0.0
2017-Sep-14 20:30N 26°04' W 080°08'0 0.0
2017-Sep-14 20:00N 26°04' W 080°08'0 0.0
2017-Sep-14 19:30N 26°04' W 080°08'0 0.0
2017-Sep-14 19:00N 26°04' W 080°08'0 0.0
2017-Sep-14 18:30N 26°04' W 080°08'0 0.0
2017-Sep-14 18:00N 26°04' W 080°08'0 0.0
2017-Sep-14 17:30N 26°04' W 080°08'0 0.0
2017-Sep-14 17:00N 26°04' W 080°08'0 0.0
2017-Sep-14 16:30N 26°04' W 080°08'0 0.0
2017-Sep-14 16:00N 26°04' W 080°08'0 0.0
2017-Sep-14 12:53N 26°04' W 080°08'1 1.0
2017-Sep-14 12:23N 26°04' W 080°07'1 3.6
2017-Sep-14 12:00N 26°05' W 080°07'2 3.4
2017-Sep-14 11:28N 26°04' W 080°05'1 2.6
2017-Sep-14 11:00N 26°03' W 080°04'2 2.7
2017-Sep-14 10:26N 26°02' W 080°04'3 6.2
2017-Sep-14 10:00N 25°59' W 080°03'3 6.1
2017-Sep-14 09:30N 25°57' W 080°01'1 2.7
2017-Sep-14 09:00N 25°58' W 080°02'1 1.8
2017-Sep-14 08:30N 25°59' W 080°02'2 3.1
2017-Sep-14 08:00N 25°57' W 080°02'2 3.8
2017-Sep-14 07:30N 25°55' W 080°02'2 3.7
2017-Sep-14 07:00N 25°54' W 080°02'2 3.9
2017-Sep-14 06:30N 25°52' W 080°02'2 4.5
2017-Sep-14 06:00N 25°49' W 080°02'0 0.9
2017-Sep-14 05:30N 25°50' W 080°02'2 3.4
2017-Sep-14 05:00N 25°52' W 080°02'2 3.4
2017-Sep-14 04:30N 25°53' W 080°02'2 3.5
2017-Sep-14 04:00N 25°55' W 080°02'2 3.6
2017-Sep-14 03:30N 25°57' W 080°03'2 3.6
2017-Sep-14 03:00N 25°59' W 080°03'1 1.1
2017-Sep-14 02:30N 25°58' W 080°02'2 3.3
2017-Sep-14 02:00N 25°56' W 080°02'2 3.3
2017-Sep-14 01:30N 25°55' W 080°02'3 5.3
2017-Sep-14 01:00N 25°52' W 080°02'4 7.4
2017-Sep-14 00:30N 25°48' W 080°01'510.8
2017-Sep-14 00:00N 25°43' W 080°00'612.1
2017-Sep-13 23:30N 25°37' W 080°00'711.9
2017-Sep-13 22:56N 25°30' W 080°01'  
2017-Sep-07 07:21N 25°29' W 080°01'2 6.7
2017-Sep-07 07:00N 25°31' W 080°01'3 6.7
2017-Sep-07 06:30N 25°35' W 080°01'4 7.1
2017-Sep-07 06:00N 25°38' W 080°01'4 7.2
2017-Sep-07 05:30N 25°42' W 080°02'3 6.9
2017-Sep-07 05:00N 25°45' W 080°02'4 7.5
2017-Sep-07 04:30N 25°49' W 080°02'4 8.6
2017-Sep-07 04:00N 25°53' W 080°03'5 9.2
2017-Sep-07 03:30N 25°58' W 080°04'5 9.3
2017-Sep-07 03:00N 26°02' W 080°04'4 7.7
2017-Sep-07 02:30N 26°06' W 080°07'2 4.3
2017-Sep-07 02:00N 26°04' W 080°08'0 0.0
2017-Sep-07 01:30N 26°04' W 080°08'0 0.0
2017-Sep-07 01:00N 26°04' W 080°08'0 0.0
2017-Sep-07 00:30N 26°04' W 080°08'0 0.0
2017-Sep-07 00:00N 26°04' W 080°08'0 0.0
2017-Sep-06 23:30N 26°04' W 080°08'0 0.0
2017-Sep-06 23:00N 26°04' W 080°08'2 3.2
2017-Sep-06 22:30N 26°05' W 080°07'4 7.7
2017-Sep-06 22:00N 26°05' W 080°02'5 9.5
2017-Sep-06 21:30N 26°03' W 079°58'5 9.2
2017-Sep-06 21:00N 26°02' W 079°53'4 8.9
2017-Sep-06 20:30N 26°00' W 079°48'5 9.1
2017-Sep-06 20:00N 25°59' W 079°43'  
Track history (hours):
 
Tides and Currents Weather Stations Pressure Air Temp Water Temp Dewpoint Dewpoint Depression Visibility Wind Speed Wind Dir Waves Ship Positions

Emerald Express

Last reported at 2017-Sep-16 10:09 UTC. Time now 2017-Sep-22 04:32 UTC.
Position N 25°54' W 079°37'.

Length 53 m; draft 2 m.

Type: Ship. MMSI: 354580000.

Date/timePositionNaut miles runAvg speedWind from/ knotsBaromVisibWave heightAir tempDewpointWater temp
2017-Sep-16 10:09N 25°54' W 079°37'1 7.6
2017-Sep-16 09:59N 25°55' W 079°38'4 7.5
2017-Sep-16 09:30N 25°56' W 079°42'4 7.4
2017-Sep-16 09:00N 25°57' W 079°46'4 7.4
2017-Sep-16 08:30N 25°58' W 079°50'4 7.2
2017-Sep-16 08:00N 25°60' W 079°53'4 7.5
2017-Sep-16 07:30N 26°00' W 079°58'3 7.0
2017-Sep-16 07:00N 26°02' W 080°01'4 7.9
2017-Sep-16 06:30N 26°05' W 080°04'3 5.0
2017-Sep-16 06:00N 26°04' W 080°07'1 2.0
2017-Sep-16 05:30N 26°04' W 080°08'0 0.0
2017-Sep-16 05:00N 26°04' W 080°08'0 0.0
2017-Sep-16 04:30N 26°04' W 080°08'0 0.0
2017-Sep-16 04:00N 26°04' W 080°08'0 0.0
2017-Sep-16 03:30N 26°04' W 080°08'0 0.0
2017-Sep-16 03:00N 26°04' W 080°08'0 0.0
2017-Sep-16 02:30N 26°04' W 080°08'0 0.0
2017-Sep-16 02:00N 26°04' W 080°08'1 2.1
2017-Sep-16 01:30N 26°04' W 080°07'1 2.2
2017-Sep-16 01:00N 26°05' W 080°06'0 0.9
2017-Sep-16 00:30N 26°05' W 080°05'3 6.1
2017-Sep-16 00:00N 26°05' W 080°02'4 8.1
2017-Sep-15 23:30N 26°06' W 079°58'4 8.2
2017-Sep-15 23:00N 26°06' W 079°53'4 7.9
2017-Sep-15 22:30N 26°06' W 079°49'4 7.7
2017-Sep-15 22:00N 26°06' W 079°44'4 7.5
2017-Sep-15 21:30N 26°06' W 079°40'4 7.7
2017-Sep-15 21:00N 26°06' W 079°36'4 8.0
2017-Sep-15 20:30N 26°07' W 079°31'12 0.8
2017-Sep-15 06:32N 26°17' W 079°26'5 8.6
2017-Sep-15 05:58N 26°16' W 079°31'4 8.4
2017-Sep-15 05:30N 26°15' W 079°35'4 8.2
2017-Sep-15 05:00N 26°13' W 079°39'4 8.4
2017-Sep-15 04:30N 26°12' W 079°44'4 8.7
2017-Sep-15 04:00N 26°10' W 079°48'5 9.2
2017-Sep-15 03:30N 26°09' W 079°53'5 9.0
2017-Sep-15 03:00N 26°07' W 079°58'5 9.7
2017-Sep-15 02:30N 26°06' W 080°03'4 7.5
2017-Sep-15 02:00N 26°05' W 080°07'1 2.6
2017-Sep-15 01:30N 26°04' W 080°08'0 0.0
2017-Sep-15 01:00N 26°04' W 080°08'0 0.0
2017-Sep-15 00:30N 26°04' W 080°08'0 0.0
2017-Sep-15 00:00N 26°04' W 080°08'0 0.0
2017-Sep-14 23:30N 26°04' W 080°08'0 0.0
2017-Sep-14 23:00N 26°04' W 080°08'0 0.0
2017-Sep-14 22:30N 26°04' W 080°08'0 0.0
2017-Sep-14 22:00N 26°04' W 080°08'0 0.0
2017-Sep-14 21:30N 26°04' W 080°08'0 0.0
2017-Sep-14 21:00N 26°04' W 080°08'0 0.0
2017-Sep-14 20:30N 26°04' W 080°08'0 0.0
2017-Sep-14 20:00N 26°04' W 080°08'0 0.0
2017-Sep-14 19:30N 26°04' W 080°08'0 0.0
2017-Sep-14 19:00N 26°04' W 080°08'0 0.0
2017-Sep-14 18:30N 26°04' W 080°08'0 0.0
2017-Sep-14 18:00N 26°04' W 080°08'0 0.0
2017-Sep-14 17:30N 26°04' W 080°08'0 0.0
2017-Sep-14 17:00N 26°04' W 080°08'0 0.0
2017-Sep-14 16:30N 26°04' W 080°08'0 0.0
2017-Sep-14 16:00N 26°04' W 080°08'0 0.0
2017-Sep-14 12:53N 26°04' W 080°08'1 1.0
2017-Sep-14 12:23N 26°04' W 080°07'1 3.6
2017-Sep-14 12:00N 26°05' W 080°07'2 3.4
2017-Sep-14 11:28N 26°04' W 080°05'1 2.6
2017-Sep-14 11:00N 26°03' W 080°04'2 2.7
2017-Sep-14 10:26N 26°02' W 080°04'3 6.2
2017-Sep-14 10:00N 25°59' W 080°03'3 6.1
2017-Sep-14 09:30N 25°57' W 080°01'1 2.7
2017-Sep-14 09:00N 25°58' W 080°02'1 1.8
2017-Sep-14 08:30N 25°59' W 080°02'2 3.1
2017-Sep-14 08:00N 25°57' W 080°02'2 3.8
2017-Sep-14 07:30N 25°55' W 080°02'2 3.7
2017-Sep-14 07:00N 25°54' W 080°02'2 3.9
2017-Sep-14 06:30N 25°52' W 080°02'2 4.5
2017-Sep-14 06:00N 25°49' W 080°02'0 0.9
2017-Sep-14 05:30N 25°50' W 080°02'2 3.4
2017-Sep-14 05:00N 25°52' W 080°02'2 3.4
2017-Sep-14 04:30N 25°53' W 080°02'2 3.5
2017-Sep-14 04:00N 25°55' W 080°02'2 3.6
2017-Sep-14 03:30N 25°57' W 080°03'2 3.6
2017-Sep-14 03:00N 25°59' W 080°03'1 1.1
2017-Sep-14 02:30N 25°58' W 080°02'2 3.3
2017-Sep-14 02:00N 25°56' W 080°02'2 3.3
2017-Sep-14 01:30N 25°55' W 080°02'3 5.3
2017-Sep-14 01:00N 25°52' W 080°02'4 7.4
2017-Sep-14 00:30N 25°48' W 080°01'510.8
2017-Sep-14 00:00N 25°43' W 080°00'612.1
2017-Sep-13 23:30N 25°37' W 080°00'711.9
2017-Sep-13 22:56N 25°30' W 080°01'  
2017-Sep-07 07:21N 25°29' W 080°01'2 6.7
2017-Sep-07 07:00N 25°31' W 080°01'3 6.7
2017-Sep-07 06:30N 25°35' W 080°01'4 7.1
2017-Sep-07 06:00N 25°38' W 080°01'4 7.2
2017-Sep-07 05:30N 25°42' W 080°02'3 6.9
2017-Sep-07 05:00N 25°45' W 080°02'4 7.5
2017-Sep-07 04:30N 25°49' W 080°02'4 8.6
2017-Sep-07 04:00N 25°53' W 080°03'5 9.2
2017-Sep-07 03:30N 25°58' W 080°04'5 9.3
2017-Sep-07 03:00N 26°02' W 080°04'4 7.7
2017-Sep-07 02:30N 26°06' W 080°07'2 4.3
2017-Sep-07 02:00N 26°04' W 080°08'0 0.0
2017-Sep-07 01:30N 26°04' W 080°08'0 0.0
2017-Sep-07 01:00N 26°04' W 080°08'0 0.0
2017-Sep-07 00:30N 26°04' W 080°08'0 0.0
2017-Sep-07 00:00N 26°04' W 080°08'0 0.0
2017-Sep-06 23:30N 26°04' W 080°08'0 0.0
2017-Sep-06 23:00N 26°04' W 080°08'2 3.2
2017-Sep-06 22:30N 26°05' W 080°07'4 7.7
2017-Sep-06 22:00N 26°05' W 080°02'5 9.5
2017-Sep-06 21:30N 26°03' W 079°58'5 9.2
2017-Sep-06 21:00N 26°02' W 079°53'4 8.9
2017-Sep-06 20:30N 26°00' W 079°48'5 9.1
2017-Sep-06 20:00N 25°59' W 079°43'  

Dump ship's entire track history